BAW40F KJFK-EGLL
Flight info
| Callsign | BAW40F |
|---|---|
| Flight time | N/A |
| Altitude | 35000 |
| Route | BETTE DCT ACK DCT KANNI DCT SUPRY/M084F370 DCT 4650N DCT 4840N DCT 5030N DCT 5220N DCT LIMRI/N0479F370 DCT XETBO DCT ENJEX DCT AVZAC DCT INFEC DCT JETZI DCT AMFUL DCT CAWZE DCT SIRIC |
| Aircraft | B744/H-SDE1E2E3FGHIJ2J3J4J5M1RWXY/LB1D1 |
Departure
| Time | 2026-05-04 19:44 |
|---|---|
| Airport | John F. Kennedy International Airport (KJFK) |
Arrival
| Time | N/A |
|---|---|
| Airport | London Heathrow Airport (EGLL) |
| Time | Latitude | Longitude | Altitude | Speed | Heading |
|---|---|---|---|---|---|
| 2026-05-04 19:18 | 40.64855 | -73.78884 | 28 ft | 0 kts | 245° |
| 2026-05-04 19:30 | 40.64857 | -73.78879 | 28 ft | 2 kts | 245° |
| 2026-05-04 19:31 | 40.64868 | -73.78851 | 26 ft | 3 kts | 227° |
| 2026-05-04 19:31 | 40.64879 | -73.78831 | 26 ft | 4 kts | 295° |
| 2026-05-04 19:31 | 40.64862 | -73.78812 | 27 ft | 4 kts | 335° |
| 2026-05-04 19:31 | 40.64841 | -73.78799 | 28 ft | 1 kts | 335° |
| 2026-05-04 19:32 | 40.64840 | -73.78799 | 28 ft | 0 kts | 335° |
| 2026-05-04 19:34 | 40.64842 | -73.78800 | 28 ft | 2 kts | 335° |
| 2026-05-04 19:34 | 40.64882 | -73.78823 | 24 ft | 11 kts | 340° |
| 2026-05-04 19:35 | 40.64962 | -73.78854 | 28 ft | 12 kts | 344° |
| 2026-05-04 19:35 | 40.65028 | -73.78904 | 28 ft | 9 kts | 324° |
| 2026-05-04 19:35 | 40.65050 | -73.78914 | 28 ft | 0 kts | 351° |
| 2026-05-04 19:36 | 40.65060 | -73.78914 | 28 ft | 5 kts | 360° |
| 2026-05-04 19:36 | 40.65133 | -73.78908 | 28 ft | 12 kts | 4° |
| 2026-05-04 19:36 | 40.65209 | -73.78870 | 28 ft | 12 kts | 58° |
| 2026-05-04 19:36 | 40.65236 | -73.78763 | 28 ft | 12 kts | 67° |
| 2026-05-04 19:37 | 40.65277 | -73.78663 | 32 ft | 12 kts | 60° |
| 2026-05-04 19:37 | 40.65330 | -73.78532 | 28 ft | 20 kts | 64° |
| 2026-05-04 19:37 | 40.65395 | -73.78373 | 29 ft | 20 kts | 56° |
| 2026-05-04 19:37 | 40.65466 | -73.78219 | 30 ft | 17 kts | 60° |
| 2026-05-04 19:38 | 40.65491 | -73.78128 | 26 ft | 10 kts | 97° |
| 2026-05-04 19:38 | 40.65459 | -73.78041 | 27 ft | 12 kts | 121° |
| 2026-05-04 19:38 | 40.65402 | -73.77917 | 32 ft | 20 kts | 121° |
| 2026-05-04 19:38 | 40.65328 | -73.77754 | 25 ft | 21 kts | 121° |
| 2026-05-04 19:39 | 40.65254 | -73.77591 | 26 ft | 21 kts | 121° |
| 2026-05-04 19:39 | 40.65180 | -73.77427 | 27 ft | 21 kts | 120° |
| 2026-05-04 19:39 | 40.65107 | -73.77264 | 29 ft | 21 kts | 121° |
| 2026-05-04 19:39 | 40.65033 | -73.77102 | 31 ft | 21 kts | 121° |
| 2026-05-04 19:40 | 40.64959 | -73.76938 | 29 ft | 21 kts | 121° |
| 2026-05-04 19:40 | 40.64893 | -73.76794 | 26 ft | 13 kts | 121° |
| 2026-05-04 19:40 | 40.64884 | -73.76697 | 26 ft | 12 kts | 52° |
| 2026-05-04 19:40 | 40.64954 | -73.76639 | 30 ft | 12 kts | 30° |
| 2026-05-04 19:41 | 40.65024 | -73.76585 | 30 ft | 11 kts | 31° |
| 2026-05-04 19:41 | 40.65048 | -73.76566 | 30 ft | 0 kts | 31° |
| 2026-05-04 19:41 | 40.65053 | -73.76562 | 29 ft | 4 kts | 31° |
| 2026-05-04 19:42 | 40.65093 | -73.76522 | 28 ft | 8 kts | 54° |
| 2026-05-04 19:42 | 40.65094 | -73.76472 | 27 ft | 3 kts | 110° |
| 2026-05-04 19:42 | 40.65085 | -73.76447 | 27 ft | 5 kts | 116° |
| 2026-05-04 19:42 | 40.65060 | -73.76385 | 27 ft | 8 kts | 117° |
| 2026-05-04 19:43 | 40.65021 | -73.76359 | 27 ft | 7 kts | 194° |
| 2026-05-04 19:43 | 40.64996 | -73.76376 | 27 ft | 1 kts | 212° |
| 2026-05-04 19:43 | 40.64975 | -73.76393 | 27 ft | 15 kts | 211° |
| 2026-05-04 19:43 | 40.64674 | -73.76628 | 30 ft | 88 kts | 211° |
| 2026-05-04 19:44 | 40.63947 | -73.77194 | 27 ft | 151 kts | 210° |
| 2026-05-04 19:44 | 40.62978 | -73.77975 | 371 ft | 169 kts | 210° |
| 2026-05-04 19:44 | 40.61965 | -73.78873 | 950 ft | 182 kts | 217° |
| 2026-05-04 19:44 | 40.60923 | -73.79931 | 1473 ft | 197 kts | 218° |
| 2026-05-04 19:45 | 40.59774 | -73.81090 | 1820 ft | 221 kts | 217° |
| 2026-05-04 19:45 | 40.58452 | -73.82287 | 2304 ft | 237 kts | 217° |
| 2026-05-04 19:45 | 40.57066 | -73.83552 | 3061 ft | 245 kts | 216° |
| 2026-05-04 19:45 | 40.55682 | -73.84782 | 4020 ft | 243 kts | 216° |
| 2026-05-04 19:46 | 40.54272 | -73.86026 | 4753 ft | 247 kts | 216° |
| 2026-05-04 19:46 | 40.52816 | -73.87227 | 5198 ft | 246 kts | 207° |
| 2026-05-04 19:46 | 40.51090 | -73.87653 | 5835 ft | 265 kts | 180° |
| 2026-05-04 19:46 | 40.49268 | -73.86908 | 6452 ft | 285 kts | 152° |
| 2026-05-04 19:47 | 40.47812 | -73.85085 | 7167 ft | 297 kts | 125° |
| 2026-05-04 19:47 | 40.47028 | -73.82532 | 7782 ft | 310 kts | 99° |
| 2026-05-04 19:47 | 40.47001 | -73.79663 | 8372 ft | 319 kts | 84° |
| 2026-05-04 19:47 | 40.47268 | -73.76738 | 9092 ft | 325 kts | 81° |
| 2026-05-04 19:48 | 40.47610 | -73.73819 | 9899 ft | 328 kts | 79° |
| 2026-05-04 19:48 | 40.47980 | -73.70834 | 10555 ft | 337 kts | 79° |
| 2026-05-04 19:48 | 40.48372 | -73.67687 | 10773 ft | 362 kts | 79° |
| 2026-05-04 19:48 | 40.48787 | -73.64302 | 10992 ft | 387 kts | 79° |
| 2026-05-04 19:49 | 40.49217 | -73.60703 | 11374 ft | 406 kts | 80° |
| 2026-05-04 19:49 | 40.49652 | -73.56992 | 12096 ft | 416 kts | 80° |
| 2026-05-04 19:49 | 40.50090 | -73.53196 | 12998 ft | 422 kts | 80° |
| 2026-05-04 19:49 | 40.50528 | -73.49357 | 13916 ft | 428 kts | 80° |
| 2026-05-04 19:50 | 40.50970 | -73.45460 | 14764 ft | 433 kts | 80° |
| 2026-05-04 19:50 | 40.51414 | -73.41532 | 15619 ft | 437 kts | 80° |
| 2026-05-04 19:50 | 40.51862 | -73.37560 | 16469 ft | 442 kts | 80° |
| 2026-05-04 19:50 | 40.52315 | -73.33534 | 17296 ft | 447 kts | 80° |
| 2026-05-04 19:51 | 40.52765 | -73.29520 | 18106 ft | 453 kts | 80° |
| 2026-05-04 19:51 | 40.53226 | -73.25399 | 18818 ft | 458 kts | 80° |
| 2026-05-04 19:51 | 40.53691 | -73.21229 | 19521 ft | 463 kts | 79° |
| 2026-05-04 19:51 | 40.54158 | -73.17025 | 20244 ft | 467 kts | 79° |
| 2026-05-04 19:52 | 40.54627 | -73.12789 | 20949 ft | 471 kts | 79° |
| 2026-05-04 19:52 | 40.55100 | -73.08500 | 21641 ft | 476 kts | 79° |
| 2026-05-04 19:52 | 40.55580 | -73.04176 | 22294 ft | 480 kts | 78° |
| 2026-05-04 19:52 | 40.56226 | -72.99860 | 22924 ft | 482 kts | 72° |
| 2026-05-04 19:53 | 40.57217 | -72.95636 | 23562 ft | 484 kts | 68° |
| 2026-05-04 19:53 | 40.58324 | -72.91436 | 24132 ft | 487 kts | 67° |
| 2026-05-04 19:53 | 40.59442 | -72.87213 | 24672 ft | 490 kts | 67° |
| 2026-05-04 19:53 | 40.60558 | -72.82968 | 25237 ft | 493 kts | 67° |
| 2026-05-04 19:54 | 40.61673 | -72.78683 | 25769 ft | 496 kts | 67° |
| 2026-05-04 19:54 | 40.62785 | -72.74367 | 26280 ft | 499 kts | 68° |
| 2026-05-04 19:54 | 40.63895 | -72.70027 | 26751 ft | 502 kts | 68° |
| 2026-05-04 19:54 | 40.65006 | -72.65661 | 27226 ft | 505 kts | 68° |
| 2026-05-04 19:55 | 40.66108 | -72.61316 | 27683 ft | 508 kts | 68° |
| 2026-05-04 19:55 | 40.67230 | -72.56882 | 28095 ft | 510 kts | 68° |
| 2026-05-04 19:55 | 40.68353 | -72.52436 | 28494 ft | 513 kts | 68° |
| 2026-05-04 19:55 | 40.69481 | -72.47962 | 28878 ft | 515 kts | 68° |
| 2026-05-04 19:56 | 40.70611 | -72.43475 | 29392 ft | 514 kts | 68° |
| 2026-05-04 19:56 | 40.71732 | -72.39010 | 30016 ft | 511 kts | 67° |
| 2026-05-04 19:56 | 40.72844 | -72.34569 | 30525 ft | 509 kts | 68° |
| 2026-05-04 19:56 | 40.73951 | -72.30148 | 30962 ft | 508 kts | 68° |
| 2026-05-04 19:57 | 40.74685 | -72.27217 | 31214 ft | 508 kts | 68° |
| 2026-05-04 19:57 | 40.75794 | -72.22779 | 31582 ft | 509 kts | 68° |
| 2026-05-04 19:57 | 40.76904 | -72.18331 | 31921 ft | 510 kts | 68° |
| 2026-05-04 19:57 | 40.78368 | -72.12450 | 32462 ft | 509 kts | 68° |
| 2026-05-04 19:58 | 40.79468 | -72.08020 | 32935 ft | 507 kts | 68° |
| 2026-05-04 19:58 | 40.80208 | -72.05033 | 33241 ft | 506 kts | 68° |
| 2026-05-04 19:58 | 40.81300 | -72.00619 | 33652 ft | 505 kts | 69° |
| 2026-05-04 19:58 | 40.82389 | -71.96207 | 34000 ft | 505 kts | 69° |
| 2026-05-04 19:59 | 40.83466 | -71.91844 | 34251 ft | 506 kts | 69° |
| 2026-05-04 19:59 | 40.84559 | -71.87408 | 34371 ft | 511 kts | 69° |
| 2026-05-04 19:59 | 40.85661 | -71.82930 | 34500 ft | 515 kts | 69° |
| 2026-05-04 19:59 | 40.86768 | -71.78432 | 34761 ft | 515 kts | 69° |
| 2026-05-04 20:00 | 40.88059 | -71.74009 | 34859 ft | 516 kts | 62° |
| 2026-05-04 20:00 | 40.91384 | -71.65538 | 34957 ft | 522 kts | 59° |
| 2026-05-04 20:01 | 40.94771 | -71.57073 | 34967 ft | 519 kts | 59° |
| 2026-05-04 20:01 | 40.98133 | -71.48643 | 34958 ft | 516 kts | 59° |
| 2026-05-04 20:02 | 41.01475 | -71.40232 | 34958 ft | 516 kts | 59° |
| 2026-05-04 20:02 | 41.04787 | -71.31866 | 34961 ft | 516 kts | 59° |
| 2026-05-04 20:03 | 41.08122 | -71.23416 | 34976 ft | 517 kts | 59° |
| 2026-05-04 20:03 | 41.11458 | -71.14939 | 34968 ft | 518 kts | 59° |
| 2026-05-04 20:04 | 41.14789 | -71.06449 | 34952 ft | 519 kts | 59° |
| 2026-05-04 20:04 | 41.18118 | -70.97942 | 34954 ft | 519 kts | 59° |
| 2026-05-04 20:05 | 41.21418 | -70.89482 | 34956 ft | 519 kts | 59° |
| 2026-05-04 20:05 | 41.24742 | -70.80937 | 34946 ft | 520 kts | 60° |
| 2026-05-04 20:06 | 41.28063 | -70.72377 | 34962 ft | 522 kts | 60° |
| 2026-05-04 20:06 | 41.31390 | -70.63774 | 34954 ft | 523 kts | 60° |
| 2026-05-04 20:07 | 41.34714 | -70.55155 | 34965 ft | 524 kts | 60° |
| 2026-05-04 20:07 | 41.38037 | -70.46511 | 34956 ft | 525 kts | 60° |
| 2026-05-04 20:08 | 41.41339 | -70.37898 | 34952 ft | 525 kts | 60° |
| 2026-05-04 20:08 | 41.44656 | -70.29219 | 34964 ft | 526 kts | 60° |
| 2026-05-04 20:09 | 41.47969 | -70.20524 | 34959 ft | 526 kts | 60° |
| 2026-05-04 20:09 | 41.51279 | -70.11809 | 34941 ft | 527 kts | 60° |
| 2026-05-04 20:10 | 41.54591 | -70.03067 | 34943 ft | 528 kts | 60° |
| 2026-05-04 20:10 | 41.57898 | -69.94308 | 34936 ft | 528 kts | 61° |
| 2026-05-04 20:11 | 41.61203 | -69.85531 | 34937 ft | 529 kts | 61° |
| 2026-05-04 20:11 | 41.64505 | -69.76732 | 34943 ft | 530 kts | 61° |
| 2026-05-04 20:12 | 41.67809 | -69.67902 | 34944 ft | 531 kts | 61° |
| 2026-05-04 20:12 | 41.71115 | -69.59040 | 34945 ft | 532 kts | 61° |
| 2026-05-04 20:13 | 41.74396 | -69.50218 | 34946 ft | 533 kts | 61° |
| 2026-05-04 20:13 | 41.77697 | -69.41313 | 34952 ft | 534 kts | 61° |
| 2026-05-04 20:14 | 41.81000 | -69.32375 | 34945 ft | 535 kts | 62° |